Time;durP1;ratioP1;P1;durP2;ratioP2;P2;SDS_P1;SDS_P2;PMS_P1;PMS_P2;Temp;Humidity;BMP_temperature;BMP_pressure;BME280_temperature;BME280_humidity;BME280_pressure;Samples;Min_cycle;Max_cycle;Signal;HPM_P1;HPM_P2
2021/08/26 00:00:07;;;;;;;31.20;4.60;;;15.50;99.90;;;;;;5065950;28;20412;-79
2021/08/26 00:08:01;;;;;;;26.35;4.38;;;15.50;99.90;;;;;;5068000;28;20511;-79
2021/08/26 00:10:28;;;;;;;22.70;4.38;;;15.60;99.90;;;;;;5063484;28;20170;-79
2021/08/26 00:12:54;;;;;;;27.25;4.88;;;15.60;99.90;;;;;;5063979;28;20118;-81
2021/08/26 00:15:20;;;;;;;29.60;4.45;;;15.60;99.90;;;;;;5050396;28;20048;-78
2021/08/26 00:17:47;;;;;;;35.63;5.20;;;15.60;99.90;;;;;;5048355;28;20055;-78
2021/08/26 00:20:13;;;;;;;27.75;4.43;;;15.60;99.90;;;;;;5048800;28;20043;-81
2021/08/26 00:22:39;;;;;;;18.60;3.35;;;15.50;99.90;;;;;;5047569;28;20053;-81
2021/08/26 00:25:06;;;;;;;26.50;4.20;;;15.60;99.90;;;;;;5062439;28;20055;-79
2021/08/26 00:27:32;;;;;;;24.17;3.63;;;15.60;99.90;;;;;;5048535;28;20059;-80
2021/08/26 00:29:58;;;;;;;24.45;4.03;;;15.70;99.90;;;;;;5066418;28;20040;-79
2021/08/26 00:32:24;;;;;;;22.58;4.00;;;15.60;99.90;;;;;;5066175;28;20184;-79
2021/08/26 00:34:49;;;;;;;18.52;3.00;;;15.60;99.90;;;;;;5067347;28;20117;-79
2021/08/26 00:37:15;;;;;;;25.73;4.05;;;15.60;99.90;;;;;;5065770;28;20045;-78
2021/08/26 00:39:40;;;;;;;22.42;3.50;;;15.60;99.90;;;;;;5065303;28;20044;-78
2021/08/26 00:42:07;;;;;;;23.88;3.55;;;15.60;99.90;;;;;;5065674;28;20043;-80
2021/08/26 00:44:35;;;;;;;26.30;4.32;;;15.60;99.90;;;;;;5064119;28;20033;-79
2021/08/26 00:47:00;;;;;;;21.58;3.35;;;15.60;99.90;;;;;;5044641;28;20068;-79
2021/08/26 00:49:30;;;;;;;19.55;3.08;;;15.70;99.90;;;;;;5049464;28;20048;-79
2021/08/26 00:51:56;;;;;;;25.90;3.75;;;15.60;99.90;;;;;;5046874;28;20083;-81
2021/08/26 00:54:22;;;;;;;22.02;3.50;;;15.60;99.90;;;;;;5065383;28;20063;-82
2021/08/26 00:56:47;;;;;;;22.73;3.17;;;15.50;99.90;;;;;;5047369;28;20148;-79
2021/08/26 00:59:13;;;;;;;20.55;3.58;;;15.50;99.90;;;;;;5067507;28;20174;-81
2021/08/26 01:01:54;;;;;;;20.52;3.30;;;15.50;99.90;;;;;;5046858;28;20040;-80
2021/08/26 01:04:44;;;;;;;19.88;3.97;;;15.50;99.90;;;;;;5058788;28;20050;-78
2021/08/26 01:07:13;;;;;;;23.33;3.58;;;15.50;99.90;;;;;;5060479;28;20128;-81
2021/08/26 01:09:43;;;;;;;19.70;3.13;;;15.50;99.90;;;;;;5061400;28;20123;-80
2021/08/26 01:12:20;;;;;;;19.50;2.92;;;15.60;99.90;;;;;;5064303;28;20052;-81
2021/08/26 01:14:46;;;;;;;18.08;2.45;;;15.50;99.90;;;;;;5047904;28;20147;-81
2021/08/26 01:17:22;;;;;;;13.32;2.72;;;15.50;99.90;;;;;;5049544;28;20071;-79
2021/08/26 01:19:49;;;;;;;17.80;2.50;;;15.50;99.90;;;;;;5057395;28;20052;-80
2021/08/26 01:22:17;;;;;;;22.15;2.97;;;15.50;99.90;;;;;;5063635;28;20090;-81
2021/08/26 01:24:45;;;;;;;22.45;2.90;;;15.50;99.90;;;;;;5064004;28;20105;-80
2021/08/26 01:27:11;;;;;;;21.52;3.22;;;15.40;99.90;;;;;;5061287;28;20075;-81
2021/08/26 01:29:38;;;;;;;17.65;2.83;;;15.30;99.90;;;;;;5047731;28;20543;-80
2021/08/26 01:32:04;;;;;;;16.95;3.55;;;15.20;99.90;;;;;;5065653;28;20032;-81
2021/08/26 01:34:29;;;;;;;14.95;2.90;;;15.20;99.90;;;;;;5064306;28;20383;-80
2021/08/26 01:36:55;;;;;;;21.85;3.10;;;15.10;99.90;;;;;;5066526;28;20037;-81
2021/08/26 01:39:21;;;;;;;17.65;2.35;;;15.10;99.90;;;;;;5064879;28;20036;-78
2021/08/26 01:41:55;;;;;;;15.13;2.90;;;15.10;99.90;;;;;;5064416;28;20549;-82
2021/08/26 01:44:25;;;;;;;12.63;2.42;;;15.10;99.90;;;;;;5044954;28;20434;-80
2021/08/26 01:46:52;;;;;;;12.50;2.30;;;15.20;99.90;;;;;;5062387;28;20072;-79
2021/08/26 01:49:18;;;;;;;11.00;2.25;;;15.10;99.90;;;;;;5050180;28;20064;-82
2021/08/26 01:51:43;;;;;;;14.95;2.42;;;15.10;99.90;;;;;;5047506;28;20083;-82
2021/08/26 01:54:09;;;;;;;15.48;2.50;;;15.00;99.90;;;;;;5067213;28;20452;-78
2021/08/26 01:56:36;;;;;;;14.13;2.28;;;15.00;99.90;;;;;;5065370;28;20085;-79
2021/08/26 01:59:02;;;;;;;11.90;2.38;;;15.10;99.90;;;;;;5054418;28;20056;-79
2021/08/26 02:01:28;;;;;;;10.65;2.35;;;15.00;99.90;;;;;;5052655;28;20556;-78
2021/08/26 02:03:55;;;;;;;8.13;1.85;;;15.00;99.90;;;;;;5053292;28;20041;-79
2021/08/26 02:06:21;;;;;;;14.35;2.17;;;15.00;99.90;;;;;;5068508;28;20051;-78
2021/08/26 02:08:46;;;;;;;13.43;2.22;;;14.90;99.90;;;;;;5068286;28;20048;-78
2021/08/26 02:11:12;;;;;;;15.80;2.40;;;15.00;99.90;;;;;;5049620;28;22045;-79
2021/08/26 02:13:38;;;;;;;14.90;1.98;;;15.00;99.90;;;;;;5069420;28;20055;-81
2021/08/26 02:16:05;;;;;;;12.93;2.20;;;15.00;99.90;;;;;;5070502;28;20036;-79
2021/08/26 02:18:31;;;;;;;13.13;2.42;;;15.00;99.90;;;;;;5066486;28;20037;-80
2021/08/26 02:20:56;;;;;;;14.77;2.45;;;14.90;99.90;;;;;;5070288;28;20047;-80
2021/08/26 02:23:22;;;;;;;14.95;2.50;;;15.00;99.90;;;;;;5050126;28;20032;-81
2021/08/26 02:25:48;;;;;;;9.25;2.17;;;14.90;99.90;;;;;;5050310;28;20139;-81
2021/08/26 02:28:13;;;;;;;21.05;3.13;;;15.00;99.90;;;;;;5051874;28;20128;-77
2021/08/26 02:30:39;;;;;;;22.85;3.00;;;15.00;99.90;;;;;;5048102;28;20068;-79
2021/08/26 02:33:05;;;;;;;14.63;2.53;;;15.10;99.90;;;;;;5066124;28;20067;-81
2021/08/26 02:35:30;;;;;;;21.98;3.30;;;15.00;99.90;;;;;;5068977;28;20131;-81
2021/08/26 02:37:56;;;;;;;15.60;3.00;;;15.00;99.90;;;;;;5067171;28;20457;-79
2021/08/26 02:40:22;;;;;;;25.27;3.42;;;15.00;99.90;;;;;;5067869;28;20036;-80
2021/08/26 02:42:47;;;;;;;17.92;3.15;;;15.10;99.90;;;;;;5051163;28;20403;-81
2021/08/26 02:45:13;;;;;;;22.13;3.13;;;14.90;99.90;;;;;;5050044;28;20025;-79
2021/08/26 02:47:39;;;;;;;18.88;3.58;;;14.90;99.90;;;;;;5068137;28;20127;-78
2021/08/26 02:50:05;;;;;;;23.67;3.03;;;14.90;99.90;;;;;;5051677;28;20489;-81
2021/08/26 02:52:30;;;;;;;21.25;3.45;;;14.90;99.90;;;;;;5067981;28;20041;-79
2021/08/26 02:54:56;;;;;;;19.73;3.40;;;15.00;99.90;;;;;;5066974;28;20109;-81
2021/08/26 02:57:21;;;;;;;23.98;3.42;;;14.90;99.90;;;;;;5068163;28;20051;-80
2021/08/26 02:59:47;;;;;;;21.13;4.00;;;15.00;99.90;;;;;;5065564;28;20040;-82
2021/08/26 03:02:13;;;;;;;19.00;3.03;;;15.00;99.90;;;;;;5049766;28;20483;-78
2021/08/26 03:04:38;;;;;;;26.45;3.72;;;15.00;99.90;;;;;;5066199;28;20049;-78
2021/08/26 03:07:04;;;;;;;16.52;3.30;;;15.00;99.90;;;;;;5064508;28;20063;-81
2021/08/26 03:09:30;;;;;;;22.48;3.92;;;15.00;99.90;;;;;;5064663;28;20448;-79
2021/08/26 03:11:55;;;;;;;23.92;3.67;;;15.00;99.90;;;;;;5065765;28;20059;-81
2021/08/26 03:14:21;;;;;;;18.20;3.55;;;15.00;99.90;;;;;;5066911;28;20452;-81
2021/08/26 03:16:46;;;;;;;23.55;4.18;;;15.00;99.90;;;;;;5063510;28;20075;-79
2021/08/26 03:19:12;;;;;;;21.83;3.80;;;15.00;99.90;;;;;;5067939;28;20036;-81
2021/08/26 03:21:38;;;;;;;17.27;3.53;;;15.00;99.90;;;;;;5067225;28;20036;-80
2021/08/26 03:24:05;;;;;;;22.23;4.95;;;15.00;99.90;;;;;;5065585;28;20484;-78
2021/08/26 03:26:30;;;;;;;24.73;3.83;;;15.00;99.90;;;;;;5067763;28;20056;-80
2021/08/26 03:28:56;;;;;;;21.67;4.70;;;15.00;99.90;;;;;;5065801;28;20407;-79
2021/08/26 03:31:22;;;;;;;33.70;5.22;;;15.10;99.90;;;;;;5065608;28;20032;-78
2021/08/26 03:33:47;;;;;;;25.30;4.45;;;15.20;99.90;;;;;;5066915;28;20467;-78
2021/08/26 03:36:13;;;;;;;26.17;4.53;;;15.20;99.90;;;;;;5068689;28;20047;-79
2021/08/26 03:38:40;;;;;;;30.45;4.65;;;15.10;99.90;;;;;;5049515;28;20125;-78
2021/08/26 03:41:05;;;;;;;24.70;4.70;;;15.10;99.90;;;;;;5066933;28;20032;-78
2021/08/26 03:43:31;;;;;;;29.33;4.68;;;15.20;99.90;;;;;;5047293;28;20090;-80
2021/08/26 03:45:57;;;;;;;23.15;4.88;;;15.30;99.90;;;;;;5048164;28;20234;-79
2021/08/26 03:48:22;;;;;;;31.60;5.22;;;15.30;99.90;;;;;;5068273;28;20037;-79
2021/08/26 03:50:48;;;;;;;24.45;4.55;;;15.30;99.90;;;;;;5069064;28;20039;-79
2021/08/26 03:53:13;;;;;;;26.50;4.68;;;15.30;99.90;;;;;;5049056;28;20415;-79
2021/08/26 03:55:40;;;;;;;26.67;4.72;;;15.30;99.90;;;;;;5063101;28;20121;-79
2021/08/26 03:58:05;;;;;;;28.45;4.68;;;15.20;99.90;;;;;;5068429;28;20064;-78
2021/08/26 04:00:31;;;;;;;29.20;4.95;;;15.30;99.90;;;;;;5047440;28;20041;-79
2021/08/26 04:02:57;;;;;;;25.15;5.10;;;15.30;99.90;;;;;;5048752;28;20032;-77
2021/08/26 04:05:22;;;;;;;33.42;5.53;;;15.20;99.90;;;;;;5062195;28;20061;-77
2021/08/26 04:07:48;;;;;;;22.48;5.43;;;15.20;99.90;;;;;;5044673;28;20036;-78
2021/08/26 04:10:14;;;;;;;33.60;5.65;;;15.20;99.90;;;;;;5057876;28;20052;-80
2021/08/26 04:12:40;;;;;;;26.08;4.80;;;15.10;99.90;;;;;;5064757;28;20048;-78
2021/08/26 04:15:06;;;;;;;26.33;5.18;;;15.10;99.90;;;;;;5063427;28;20055;-78
2021/08/26 04:17:32;;;;;;;31.13;5.30;;;15.10;99.90;;;;;;5048915;28;20202;-81
2021/08/26 04:19:58;;;;;;;21.40;5.25;;;15.20;99.90;;;;;;5066269;28;20115;-82
2021/08/26 04:22:24;;;;;;;23.77;5.13;;;15.20;99.90;;;;;;5064821;28;20036;-83
2021/08/26 04:24:51;;;;;;;26.67;5.63;;;15.10;99.90;;;;;;5062580;28;20063;-80
2021/08/26 04:27:16;;;;;;;29.25;5.47;;;15.10;99.90;;;;;;5064123;28;20044;-81
2021/08/26 04:29:42;;;;;;;32.92;6.05;;;15.10;99.90;;;;;;5047221;28;20040;-80
2021/08/26 04:32:08;;;;;;;29.08;5.85;;;15.20;99.90;;;;;;5058950;28;20123;-81
2021/08/26 04:34:34;;;;;;;30.85;5.93;;;15.20;99.90;;;;;;5042510;28;20488;-80
2021/08/26 04:37:00;;;;;;;32.38;5.65;;;15.20;99.90;;;;;;5036802;28;20048;-80
2021/08/26 04:39:26;;;;;;;29.45;5.90;;;15.20;99.90;;;;;;5060177;28;20055;-79
2021/08/26 04:41:51;;;;;;;33.35;5.90;;;15.20;99.90;;;;;;5059193;28;20044;-78
2021/08/26 04:44:17;;;;;;;30.83;5.68;;;15.20;99.90;;;;;;5044681;28;20055;-78
2021/08/26 04:46:43;;;;;;;33.55;6.05;;;15.20;99.90;;;;;;5057795;28;20110;-81
2021/08/26 04:49:08;;;;;;;30.10;6.40;;;15.20;99.90;;;;;;5061164;28;20117;-79
2021/08/26 04:51:34;;;;;;;32.13;6.10;;;15.30;99.90;;;;;;5062005;28;20079;-79
2021/08/26 04:53:59;;;;;;;27.98;5.85;;;15.30;99.90;;;;;;5061020;28;20418;-79
2021/08/26 04:56:25;;;;;;;33.03;5.47;;;15.30;99.90;;;;;;5060901;28;20147;-79
2021/08/26 04:58:51;;;;;;;34.90;7.10;;;15.30;99.90;;;;;;5036243;28;20118;-79
2021/08/26 05:01:16;;;;;;;33.30;6.15;;;15.30;99.90;;;;;;5040198;28;20044;-79
2021/08/26 05:03:42;;;;;;;34.08;6.60;;;15.30;99.90;;;;;;5044718;28;20479;-79
2021/08/26 05:06:07;;;;;;;35.33;6.38;;;15.40;99.90;;;;;;5059299;28;20585;-79
2021/08/26 05:08:33;;;;;;;36.75;7.25;;;15.40;99.90;;;;;;5042908;28;20148;-78
2021/08/26 05:10:59;;;;;;;33.13;6.00;;;15.40;99.90;;;;;;5058636;28;20506;-77
2021/08/26 05:13:25;;;;;;;37.03;6.35;;;15.50;99.90;;;;;;5053483;28;20048;-79
2021/08/26 05:15:51;;;;;;;38.28;6.72;;;15.50;99.90;;;;;;5042965;28;20056;-79
2021/08/26 05:18:16;;;;;;;33.45;6.38;;;15.50;99.90;;;;;;5057778;28;20118;-80
2021/08/26 05:20:42;;;;;;;35.40;7.78;;;15.50;99.90;;;;;;5056652;28;20051;-80
2021/08/26 05:23:08;;;;;;;36.88;6.40;;;15.50;99.90;;;;;;5056016;28;20032;-81
2021/08/26 05:25:34;;;;;;;36.03;6.25;;;15.50;99.90;;;;;;5065980;28;20143;-81
2021/08/26 05:28:00;;;;;;;40.13;6.80;;;15.60;99.90;;;;;;5042503;28;20044;-81
2021/08/26 05:30:25;;;;;;;29.27;6.82;;;15.70;99.90;;;;;;5062228;28;20127;-80
2021/08/26 05:32:51;;;;;;;35.42;6.40;;;15.70;99.90;;;;;;5049537;28;20219;-79
2021/08/26 05:35:17;;;;;;;33.58;5.75;;;15.80;99.90;;;;;;5052304;28;20068;-80
2021/08/26 05:37:43;;;;;;;30.88;6.20;;;15.80;99.90;;;;;;5049543;28;20090;-79
2021/08/26 05:40:09;;;;;;;34.38;6.93;;;15.90;99.90;;;;;;5047902;28;20398;-77
2021/08/26 05:42:34;;;;;;;37.25;6.15;;;16.00;99.90;;;;;;5050133;28;20052;-77
2021/08/26 05:45:00;;;;;;;38.75;5.93;;;16.00;99.90;;;;;;5049425;28;20102;-76
2021/08/26 05:47:26;;;;;;;33.85;6.00;;;16.10;99.90;;;;;;5049051;28;20079;-80
2021/08/26 05:49:51;;;;;;;31.30;6.03;;;16.10;99.90;;;;;;5061267;28;20052;-79
2021/08/26 05:52:17;;;;;;;29.50;5.60;;;16.10;99.90;;;;;;5049922;28;20059;-80
2021/08/26 05:54:43;;;;;;;34.05;5.82;;;16.10;99.90;;;;;;5065185;28;20036;-79
2021/08/26 05:57:09;;;;;;;41.00;6.10;;;16.10;99.90;;;;;;5050861;28;20110;-78
2021/08/26 05:59:34;;;;;;;40.30;6.75;;;16.10;99.90;;;;;;5068496;28;20045;-80
2021/08/26 06:02:01;;;;;;;29.35;6.03;;;16.10;99.90;;;;;;5050843;28;20052;-79
2021/08/26 06:04:27;;;;;;;32.95;5.82;;;16.10;99.90;;;;;;5065728;28;20048;-78
2021/08/26 06:06:52;;;;;;;34.88;6.47;;;16.10;99.90;;;;;;5065344;28;20045;-78
2021/08/26 06:09:18;;;;;;;33.85;6.95;;;16.10;99.90;;;;;;5066895;28;20081;-79
2021/08/26 06:11:44;;;;;;;40.75;7.28;;;16.10;99.90;;;;;;5048627;28;20056;-79
2021/08/26 06:14:10;;;;;;;33.40;6.00;;;16.10;99.90;;;;;;5050832;28;20048;-77
2021/08/26 06:16:36;;;;;;;31.30;5.63;;;16.20;99.90;;;;;;5065043;28;20864;-78
2021/08/26 06:19:01;;;;;;;31.67;6.13;;;16.20;99.90;;;;;;5065506;28;20120;-79
2021/08/26 06:21:27;;;;;;;35.83;6.28;;;16.20;99.90;;;;;;5050221;28;20048;-80
2021/08/26 06:23:53;;;;;;;38.40;6.30;;;16.20;99.90;;;;;;5066757;28;20079;-80
2021/08/26 06:26:19;;;;;;;31.45;5.90;;;16.30;99.90;;;;;;5065215;28;20079;-80
2021/08/26 06:28:45;;;;;;;40.58;6.10;;;16.20;99.90;;;;;;5049794;28;20080;-78
2021/08/26 06:31:10;;;;;;;34.10;6.18;;;16.30;99.90;;;;;;5066715;28;20059;-78
2021/08/26 06:33:36;;;;;;;40.15;6.47;;;16.30;99.90;;;;;;5049806;28;20123;-78
2021/08/26 06:36:02;;;;;;;40.15;6.32;;;16.30;99.90;;;;;;5050147;28;20048;-79
2021/08/26 06:38:27;;;;;;;29.77;6.40;;;16.40;99.90;;;;;;5065527;28;20033;-81
2021/08/26 06:40:53;;;;;;;35.38;6.20;;;16.40;99.90;;;;;;5051437;28;20036;-80
2021/08/26 06:43:19;;;;;;;39.30;6.38;;;16.40;99.90;;;;;;5070509;28;20044;-78
2021/08/26 06:45:44;;;;;;;32.58;6.50;;;16.50;99.90;;;;;;5050503;28;20044;-80
2021/08/26 06:48:10;;;;;;;39.10;6.82;;;16.50;99.90;;;;;;5067625;28;20044;-80
2021/08/26 06:50:35;;;;;;;33.83;6.97;;;16.60;99.90;;;;;;5052817;28;20451;-78
2021/08/26 06:53:01;;;;;;;45.25;6.57;;;16.60;99.90;;;;;;5070687;28;20494;-80
2021/08/26 06:55:27;;;;;;;36.60;6.68;;;16.70;99.90;;;;;;5069485;28;20036;-79
2021/08/26 06:57:53;;;;;;;37.03;6.50;;;16.70;99.90;;;;;;5068822;28;20048;-79
2021/08/26 07:00:18;;;;;;;38.63;6.57;;;16.80;99.90;;;;;;5068226;28;20129;-79
2021/08/26 07:02:45;;;;;;;35.45;6.45;;;16.80;99.90;;;;;;5070315;28;20044;-79
2021/08/26 07:05:12;;;;;;;37.53;6.50;;;16.80;99.90;;;;;;5069187;28;20044;-78
2021/08/26 07:07:37;;;;;;;37.28;6.60;;;16.90;99.90;;;;;;5065562;28;20123;-80
2021/08/26 07:10:04;;;;;;;32.78;5.82;;;16.90;99.90;;;;;;5049116;28;20167;-80
2021/08/26 07:12:32;;;;;;;33.88;6.38;;;17.00;99.90;;;;;;5068815;28;20064;-78
2021/08/26 07:14:59;;;;;;;28.38;5.18;;;17.10;99.90;;;;;;5052500;28;20059;-80
2021/08/26 07:17:25;;;;;;;35.50;6.13;;;17.20;99.90;;;;;;5051466;28;20398;-79
2021/08/26 07:19:51;;;;;;;39.72;7.28;;;17.20;99.90;;;;;;5052304;28;20121;-79
2021/08/26 07:22:18;;;;;;;33.40;6.45;;;17.30;99.90;;;;;;5070249;28;20075;-79
2021/08/26 07:24:44;;;;;;;37.38;6.15;;;17.20;99.90;;;;;;5070468;28;20102;-78
2021/08/26 07:27:10;;;;;;;35.17;5.63;;;17.10;99.90;;;;;;5070118;28;20048;-80
2021/08/26 07:29:36;;;;;;;38.65;6.80;;;17.10;99.90;;;;;;5070798;28;20040;-79
2021/08/26 07:32:02;;;;;;;40.08;7.03;;;17.10;99.90;;;;;;5070202;28;20128;-79
2021/08/26 07:34:28;;;;;;;38.35;6.80;;;17.10;99.90;;;;;;5070914;28;20064;-80
2021/08/26 07:36:53;;;;;;;39.65;6.68;;;17.10;99.90;;;;;;5054549;28;20048;-79
2021/08/26 07:39:19;;;;;;;29.83;5.60;;;17.00;99.90;;;;;;5070581;28;20131;-79
2021/08/26 07:41:44;;;;;;;39.50;7.05;;;17.10;99.90;;;;;;5069981;28;20051;-79
2021/08/26 07:44:10;;;;;;;39.22;6.43;;;17.10;99.90;;;;;;5050220;28;20059;-78
2021/08/26 07:46:36;;;;;;;52.35;7.28;;;17.20;99.90;;;;;;5067601;28;20044;-79
2021/08/26 07:49:02;;;;;;;36.10;6.32;;;17.30;99.90;;;;;;5071032;28;20048;-79
2021/08/26 07:51:28;;;;;;;42.95;6.43;;;17.40;99.90;;;;;;5053374;28;20157;-79
2021/08/26 07:53:53;;;;;;;43.03;6.68;;;17.50;99.90;;;;;;5063141;28;20167;-80
2021/08/26 07:56:19;;;;;;;40.25;6.43;;;17.60;99.90;;;;;;5068406;28;20084;-82
2021/08/26 07:58:45;;;;;;;29.17;6.03;;;17.70;99.90;;;;;;5071344;28;20041;-79
2021/08/26 08:01:11;;;;;;;34.17;6.18;;;17.60;99.90;;;;;;5069949;28;20377;-80
2021/08/26 08:03:36;;;;;;;29.30;5.38;;;17.60;99.90;;;;;;5053539;28;20048;-79
2021/08/26 08:06:02;;;;;;;36.92;6.75;;;17.60;99.90;;;;;;5053629;28;20076;-80
2021/08/26 08:08:28;;;;;;;30.52;5.88;;;17.60;99.90;;;;;;5069313;28;20051;-80
2021/08/26 08:10:54;;;;;;;29.80;5.97;;;17.70;99.90;;;;;;5051753;28;20459;-79
2021/08/26 08:13:19;;;;;;;34.97;6.55;;;17.80;99.90;;;;;;5052822;28;20079;-79
2021/08/26 08:15:45;;;;;;;35.97;6.18;;;17.80;99.90;;;;;;5069044;28;20120;-80
2021/08/26 08:18:12;;;;;;;33.53;6.10;;;17.90;99.90;;;;;;5058655;28;20143;-79
2021/08/26 08:20:39;;;;;;;27.88;5.43;;;17.90;99.90;;;;;;5071880;28;20137;-79
2021/08/26 08:23:05;;;;;;;26.20;5.22;;;17.90;99.90;;;;;;5054104;28;20051;-79
2021/08/26 08:25:31;;;;;;;29.08;5.07;;;18.00;99.90;;;;;;5068956;28;20080;-79
2021/08/26 08:27:57;;;;;;;20.48;4.78;;;18.10;99.90;;;;;;5052881;28;20469;-79
2021/08/26 08:30:26;;;;;;;23.75;5.07;;;18.20;99.90;;;;;;5069687;28;20036;-81
2021/08/26 08:32:57;;;;;;;24.63;5.15;;;18.40;99.90;;;;;;5071161;28;21003;-81
2021/08/26 08:35:24;;;;;;;32.58;5.28;;;18.30;99.90;;;;;;5068711;28;20044;-81
2021/08/26 08:37:50;;;;;;;29.08;5.28;;;18.30;99.90;;;;;;5069215;28;20049;-81
2021/08/26 08:40:17;;;;;;;24.13;6.05;;;18.20;99.90;;;;;;5052471;28;20496;-80
2021/08/26 08:42:46;;;;;;;24.42;4.63;;;18.20;99.90;;;;;;5051371;28;20116;-76
2021/08/26 08:45:12;;;;;;;20.67;4.32;;;18.20;99.90;;;;;;5068162;28;20052;-77
2021/08/26 08:47:39;;;;;;;22.58;4.68;;;18.10;99.90;;;;;;5069750;28;20055;-77
2021/08/26 08:50:06;;;;;;;24.35;5.10;;;18.20;99.90;;;;;;5068624;28;20036;-76
2021/08/26 08:52:39;;;;;;;29.02;5.70;;;18.20;99.90;;;;;;5076247;28;20127;-75
2021/08/26 08:55:10;;;;;;;23.85;4.68;;;18.20;99.90;;;;;;5067165;28;20113;-75
2021/08/26 08:57:40;;;;;;;25.35;5.38;;;18.20;99.90;;;;;;5063903;28;20055;-76
2021/08/26 09:00:08;;;;;;;22.38;4.55;;;18.20;99.90;;;;;;5068479;28;20052;-76
2021/08/26 09:02:34;;;;;;;35.90;4.90;;;18.20;99.90;;;;;;5052142;28;20059;-76
2021/08/26 09:05:00;;;;;;;29.33;6.22;;;18.30;99.90;;;;;;5067541;28;20048;-75
2021/08/26 09:07:28;;;;;;;21.50;5.10;;;18.30;99.90;;;;;;5051367;28;20060;-75
2021/08/26 09:09:55;;;;;;;22.65;5.30;;;18.50;99.90;;;;;;5067670;28;20052;-75
2021/08/26 09:12:41;;;;;;;22.38;4.85;;;18.60;99.90;;;;;;5068150;28;20052;-75
2021/08/26 09:15:30;;;;;;;32.47;6.00;;;18.60;99.90;;;;;;5068494;28;20113;-77
2021/08/26 09:18:13;;;;;;;28.02;5.55;;;18.60;99.90;;;;;;5065901;28;20182;-75
2021/08/26 09:20:57;;;;;;;22.63;4.53;;;18.60;99.90;;;;;;5050127;28;20131;-75
2021/08/26 09:23:26;;;;;;;23.42;4.65;;;18.70;99.90;;;;;;5068442;28;20045;-75
2021/08/26 09:25:53;;;;;;;28.48;4.68;;;18.70;99.90;;;;;;5050320;28;20138;-74
2021/08/26 09:28:32;;;;;;;28.13;4.90;;;18.80;99.90;;;;;;5068244;28;20060;-75
2021/08/26 09:31:13;;;;;;;24.38;4.93;;;19.00;99.90;;;;;;5065955;28;20048;-75
2021/08/26 09:33:52;;;;;;;24.63;5.43;;;19.00;99.90;;;;;;5068325;28;20723;-74
2021/08/26 09:36:27;;;;;;;30.27;5.30;;;19.00;99.90;;;;;;5061320;28;20052;-74
2021/08/26 09:39:04;;;;;;;24.80;5.47;;;18.90;99.90;;;;;;5064285;28;20051;-74
2021/08/26 09:41:46;;;;;;;20.58;4.70;;;18.90;99.90;;;;;;5066964;28;20044;-74
2021/08/26 09:44:26;;;;;;;25.95;4.90;;;18.80;99.90;;;;;;5053141;28;20095;-74
2021/08/26 09:46:53;;;;;;;27.02;5.40;;;18.80;99.90;;;;;;5051695;28;20127;-74
2021/08/26 09:49:24;;;;;;;24.13;4.53;;;18.80;99.90;;;;;;5051763;28;20040;-74
2021/08/26 09:52:12;;;;;;;22.38;4.88;;;18.80;99.90;;;;;;5051942;28;20060;-74
2021/08/26 09:54:43;;;;;;;29.90;4.63;;;19.10;99.90;;;;;;5044944;28;20048;-77
2021/08/26 09:57:29;;;;;;;26.45;5.05;;;19.30;99.90;;;;;;5065497;28;20059;-73
2021/08/26 09:59:56;;;;;;;19.77;4.60;;;19.60;99.90;;;;;;5064027;28;20045;-75
2021/08/26 10:02:23;;;;;;;19.98;4.55;;;19.80;99.90;;;;;;5049070;28;20048;-76
2021/08/26 10:04:49;;;;;;;23.10;5.28;;;19.60;99.90;;;;;;5066373;28;20120;-76
2021/08/26 10:07:16;;;;;;;25.20;4.97;;;19.70;99.90;;;;;;5047377;28;20571;-76
2021/08/26 10:09:43;;;;;;;22.75;5.05;;;19.70;99.90;;;;;;5059742;28;20101;-79
2021/08/26 10:12:13;;;;;;;21.02;4.38;;;19.80;99.90;;;;;;5063582;28;20093;-75
2021/08/26 10:14:41;;;;;;;24.67;5.50;;;19.70;99.90;;;;;;5048970;28;20051;-76
2021/08/26 10:17:08;;;;;;;20.40;4.90;;;19.50;99.90;;;;;;5067087;28;20076;-75
2021/08/26 10:19:34;;;;;;;21.15;5.32;;;19.50;99.90;;;;;;5054241;28;20090;-76
2021/08/26 10:21:59;;;;;;;24.27;4.95;;;19.40;99.90;;;;;;5069987;28;20131;-77
2021/08/26 10:24:25;;;;;;;23.88;5.18;;;19.60;99.90;;;;;;5069122;28;20044;-77
2021/08/26 10:26:54;;;;;;;24.02;4.78;;;19.80;99.90;;;;;;5071113;28;20051;-74
2021/08/26 10:29:21;;;;;;;27.52;5.18;;;19.80;99.90;;;;;;5070020;28;20063;-75
2021/08/26 10:31:57;;;;;;;27.85;5.20;;;20.00;99.90;;;;;;5052151;28;20230;-75
2021/08/26 10:34:25;;;;;;;22.85;4.85;;;19.90;99.90;;;;;;5069100;28;20053;-75
2021/08/26 10:36:54;;;;;;;25.77;5.40;;;19.80;99.90;;;;;;5051709;28;20460;-77
2021/08/26 10:39:39;;;;;;;23.65;4.68;;;19.70;99.90;;;;;;5051514;28;20055;-75
2021/08/26 10:42:17;;;;;;;22.27;4.57;;;19.50;99.90;;;;;;5067493;28;20072;-75
2021/08/26 10:45:04;;;;;;;24.27;4.60;;;19.40;99.90;;;;;;5068989;28;20441;-74
2021/08/26 10:47:52;;;;;;;21.20;4.38;;;19.70;99.90;;;;;;5067108;28;20170;-76
2021/08/26 10:50:21;;;;;;;18.70;3.85;;;19.70;99.90;;;;;;5068629;28;20094;-76
2021/08/26 10:53:03;;;;;;;18.38;2.95;;;19.70;99.90;;;;;;5053093;28;20049;-76
2021/08/26 10:55:34;;;;;;;18.75;3.50;;;19.90;99.90;;;;;;5051519;28;20072;-76
2021/08/26 10:58:18;;;;;;;18.98;3.50;;;20.30;99.90;;;;;;5067134;28;20055;-76
2021/08/26 11:00:45;;;;;;;12.98;3.03;;;20.70;99.90;;;;;;5067679;28;20372;-76
2021/08/26 11:03:31;;;;;;;15.90;2.83;;;21.30;99.90;;;;;;5054556;28;20137;-76
2021/08/26 11:05:56;;;;;;;10.77;2.40;;;21.40;99.90;;;;;;5071129;28;20110;-75
2021/08/26 11:08:30;;;;;;;11.45;2.03;;;21.40;99.90;;;;;;5067642;28;20045;-76
2021/08/26 11:10:56;;;;;;;7.38;1.70;;;21.20;99.90;;;;;;5053061;28;20052;-76
2021/08/26 11:13:33;;;;;;;11.70;1.83;;;20.80;99.90;;;;;;5071490;28;20655;-76
2021/08/26 11:16:24;;;;;;;12.45;1.80;;;20.40;99.90;;;;;;5070867;28;20056;-77
2021/08/26 11:18:51;;;;;;;8.27;1.65;;;20.60;99.90;;;;;;5045411;28;20524;-77
2021/08/26 11:21:42;;;;;;;7.35;1.60;;;20.80;99.90;;;;;;5054144;28;20123;-76
2021/08/26 11:24:09;;;;;;;5.63;0.90;;;21.00;99.90;;;;;;5054411;28;20082;-79
2021/08/26 11:26:53;;;;;;;9.15;1.15;;;21.10;99.90;;;;;;5069282;28;20080;-76
2021/08/26 11:29:22;;;;;;;9.73;1.50;;;20.90;99.90;;;;;;5046312;28;20036;-77
2021/08/26 11:31:54;;;;;;;7.78;1.10;;;21.10;99.90;;;;;;5069829;28;20090;-76
2021/08/26 11:34:35;;;;;;;7.97;0.88;;;20.80;99.90;;;;;;5048399;28;20047;-76
2021/08/26 11:37:16;;;;;;;9.27;2.15;;;20.40;99.90;;;;;;5065749;28;20049;-76
2021/08/26 11:39:49;;;;;;;6.72;1.30;;;20.20;99.90;;;;;;5053386;28;20083;-76
2021/08/26 11:42:18;;;;;;;9.43;1.30;;;20.50;99.90;;;;;;5050719;28;20060;-77
2021/08/26 11:44:44;;;;;;;7.55;1.20;;;21.10;99.90;;;;;;5066076;28;20460;-78
2021/08/26 11:47:10;;;;;;;3.55;0.98;;;21.20;99.90;;;;;;5083275;28;20053;-78
2021/08/26 11:49:40;;;;;;;5.97;0.80;;;21.00;99.90;;;;;;5070620;28;20036;-80
2021/08/26 11:52:11;;;;;;;4.50;0.90;;;21.00;99.90;;;;;;5070011;28;20488;-82
2021/08/26 11:54:44;;;;;;;6.60;0.85;;;20.60;99.90;;;;;;5066541;28;20032;-80
2021/08/26 11:57:11;;;;;;;8.48;1.30;;;20.50;99.90;;;;;;5068534;28;20528;-80
2021/08/26 11:59:38;;;;;;;4.57;0.88;;;20.50;99.90;;;;;;5062440;28;20544;-78
2021/08/26 12:02:26;;;;;;;12.27;1.27;;;20.30;99.90;;;;;;5068569;28;20065;-78
2021/08/26 12:04:57;;;;;;;8.43;1.08;;;20.20;99.90;;;;;;5048782;28;20041;-76
2021/08/26 12:07:34;;;;;;;3.75;0.88;;;20.00;99.90;;;;;;5053392;28;20487;-75
2021/08/26 12:10:09;;;;;;;6.32;1.00;;;19.80;99.90;;;;;;5061205;28;20138;-75
2021/08/26 12:12:35;;;;;;;8.98;1.20;;;19.70;99.90;;;;;;5068505;28;20146;-74
2021/08/26 12:15:02;;;;;;;5.75;1.10;;;19.60;99.90;;;;;;5035240;28;20135;-76
2021/08/26 12:17:27;;;;;;;6.20;1.00;;;19.50;99.90;;;;;;5083695;28;20472;-77
2021/08/26 12:19:55;;;;;;;12.85;1.42;;;19.40;99.90;;;;;;5053237;28;20074;-76
2021/08/26 12:22:23;;;;;;;8.18;1.35;;;19.50;99.90;;;;;;5052241;28;20125;-75
2021/08/26 12:25:02;;;;;;;6.38;1.20;;;19.60;99.90;;;;;;5048898;28;20073;-75
2021/08/26 12:27:30;;;;;;;6.22;1.10;;;20.00;99.90;;;;;;5049808;28;20037;-76
2021/08/26 12:29:57;;;;;;;8.15;1.40;;;20.40;99.90;;;;;;5052122;28;20664;-76
2021/08/26 12:32:26;;;;;;;9.68;1.35;;;20.90;99.90;;;;;;5052500;28;20487;-76
2021/08/26 12:34:53;;;;;;;3.90;1.25;;;20.80;99.90;;;;;;5052845;28;20094;-76
2021/08/26 12:37:18;;;;;;;7.97;1.33;;;21.00;99.90;;;;;;5064728;28;20329;-76
2021/08/26 12:39:47;;;;;;;8.40;1.55;;;21.00;99.90;;;;;;5068411;28;20113;-75
2021/08/26 12:42:16;;;;;;;6.43;1.80;;;21.10;99.90;;;;;;5068551;28;20444;-76
2021/08/26 12:44:43;;;;;;;9.57;1.27;;;21.40;99.90;;;;;;5068820;28;20046;-75
2021/08/26 12:47:09;;;;;;;5.55;0.98;;;21.50;99.90;;;;;;5069739;28;20036;-75